www.cux-wetter.de
Wetterdaten: Dienstag, 23.06.2009
Datum Zeit Temp. A. Feuchte A. Luftdruck Regen Wind Richtung Richtung Sonnenschein Solar Taupunkt Windchill Windben
23.06.2009 00:00 14,2 C 83 % 1026,5 hPa 0,0 l/m 16,3 km/h (3 Bft) N-NO 20 0 min 0 W/m 11,4 C 9,8 C 16,3 km/h (3 Bft)
23.06.2009 00:04 14,3 C 83 % 1026,5 hPa 0,0 l/m 23,0 km/h (4 Bft) N-NO 15 0 min 0 W/m 11,5 C 8,1 C 23,0 km/h (4 Bft)
23.06.2009 00:09 14,3 C 84 % 1026,5 hPa 0,0 l/m 12,3 km/h (2 Bft) N-NO 25 0 min 0 W/m 11,6 C 11,3 C 12,3 km/h (2 Bft)
23.06.2009 00:14 14,3 C 84 % 1026,5 hPa 0,0 l/m 16,1 km/h (3 Bft) N-NO 30 0 min 0 W/m 11,6 C 10,0 C 16,1 km/h (3 Bft)
23.06.2009 00:20 14,2 C 83 % 1026,5 hPa 0,0 l/m 20,1 km/h (4 Bft) NO 45 0 min 0 W/m 11,4 C 8,7 C 20,1 km/h (4 Bft)
23.06.2009 00:25 14,1 C 83 % 1026,5 hPa 0,0 l/m 16,8 km/h (3 Bft) NO 35 0 min 0 W/m 11,3 C 9,5 C 16,8 km/h (3 Bft)
23.06.2009 00:30 14,1 C 83 % 1026,5 hPa 0,0 l/m 17,8 km/h (3 Bft) N-NO 15 0 min 0 W/m 11,3 C 9,2 C 17,8 km/h (3 Bft)
23.06.2009 00:34 14,1 C 83 % 1026,5 hPa 0,0 l/m 16,8 km/h (3 Bft) N-NO 15 0 min 0 W/m 11,3 C 9,5 C 16,8 km/h (3 Bft)
23.06.2009 00:39 14,1 C 83 % 1026,5 hPa 0,0 l/m 19,3 km/h (3 Bft) N-NO 30 0 min 0 W/m 11,3 C 8,8 C 19,3 km/h (3 Bft)
23.06.2009 00:44 14,1 C 83 % 1026,5 hPa 0,0 l/m 16,4 km/h (3 Bft) N-NO 15 0 min 0 W/m 11,3 C 9,6 C 16,4 km/h (3 Bft)
23.06.2009 00:49 14,1 C 83 % 1026,5 hPa 0,0 l/m 14,5 km/h (3 Bft) N 5 0 min 0 W/m 11,3 C 10,3 C 14,5 km/h (3 Bft)
23.06.2009 00:54 14,1 C 83 % 1026,5 hPa 0,0 l/m 14,6 km/h (3 Bft) N 5 0 min 0 W/m 11,3 C 10,2 C 14,6 km/h (3 Bft)
23.06.2009 00:59 14,0 C 84 % 1026,5 hPa 0,0 l/m 18,2 km/h (3 Bft) N-NO 20 0 min 0 W/m 11,3 C 9,0 C 18,2 km/h (3 Bft)
23.06.2009 01:04 14,0 C 84 % 1026,5 hPa 0,0 l/m 18,1 km/h (3 Bft) N-NO 20 0 min 0 W/m 11,3 C 9,0 C 18,1 km/h (3 Bft)
23.06.2009 01:09 14,0 C 84 % 1026,5 hPa 0,0 l/m 22,6 km/h (4 Bft) N-NO 25 0 min 0 W/m 11,3 C 7,8 C 22,6 km/h (4 Bft)
23.06.2009 01:14 14,0 C 84 % 1026,5 hPa 0,0 l/m 22,6 km/h (4 Bft) NO 45 0 min 0 W/m 11,3 C 7,8 C 22,6 km/h (4 Bft)
23.06.2009 01:19 14,0 C 85 % 1026,5 hPa 0,0 l/m 16,6 km/h (3 Bft) N-NO 20 0 min 0 W/m 11,5 C 9,4 C 16,6 km/h (3 Bft)
23.06.2009 01:24 14,0 C 85 % 1026,5 hPa 0,0 l/m 18,4 km/h (3 Bft) N-NO 30 0 min 0 W/m 11,5 C 8,9 C 18,4 km/h (3 Bft)
23.06.2009 01:29 14,0 C 85 % 1026,5 hPa 0,0 l/m 18,4 km/h (3 Bft) N-NO 20 0 min 0 W/m 11,5 C 8,9 C 18,4 km/h (3 Bft)
23.06.2009 01:34 14,0 C 85 % 1026,5 hPa 0,0 l/m 20,3 km/h (4 Bft) N-NO 30 0 min 0 W/m 11,5 C 8,4 C 20,3 km/h (4 Bft)
23.06.2009 01:39 13,9 C 85 % 1026,5 hPa 0,0 l/m 18,3 km/h (3 Bft) N-NO 25 0 min 0 W/m 11,4 C 8,8 C 18,3 km/h (3 Bft)
23.06.2009 01:45 13,9 C 86 % 1026,5 hPa 0,0 l/m 14,0 km/h (3 Bft) N-NO 25 0 min 0 W/m 11,6 C 10,2 C 14,0 km/h (3 Bft)
23.06.2009 01:50 13,9 C 86 % 1026,5 hPa 0,0 l/m 18,6 km/h (3 Bft) N-NO 30 0 min 0 W/m 11,6 C 8,7 C 18,6 km/h (3 Bft)
23.06.2009 01:55 13,9 C 86 % 1026,5 hPa 0,0 l/m 17,0 km/h (3 Bft) N-NO 30 0 min 0 W/m 11,6 C 9,2 C 17,0 km/h (3 Bft)
23.06.2009 01:59 13,9 C 87 % 1026,5 hPa 0,0 l/m 17,3 km/h (3 Bft) N-NO 25 0 min 0 W/m 11,8 C 9,1 C 17,3 km/h (3 Bft)
23.06.2009 02:04 13,9 C 87 % 1026,5 hPa 0,0 l/m 15,6 km/h (3 Bft) N-NO 15 0 min 0 W/m 11,8 C 9,7 C 15,6 km/h (3 Bft)
23.06.2009 02:09 13,9 C 87 % 1026,5 hPa 0,0 l/m 18,0 km/h (3 Bft) N-NO 30 0 min 0 W/m 11,8 C 8,9 C 18,0 km/h (3 Bft)
23.06.2009 02:15 13,8 C 87 % 1026,5 hPa 0,0 l/m 14,5 km/h (3 Bft) NO 40 0 min 0 W/m 11,7 C 9,9 C 14,5 km/h (3 Bft)
23.06.2009 02:20 13,8 C 87 % 1026,5 hPa 0,0 l/m 22,1 km/h (4 Bft) N-NO 25 0 min 0 W/m 11,7 C 7,7 C 22,1 km/h (4 Bft)
23.06.2009 02:24 13,8 C 87 % 1026,5 hPa 0,0 l/m 18,1 km/h (3 Bft) N-NO 15 0 min 0 W/m 11,7 C 8,7 C 18,1 km/h (3 Bft)
23.06.2009 02:29 13,8 C 87 % 1026,5 hPa 0,0 l/m 16,1 km/h (3 Bft) N 10 0 min 0 W/m 11,7 C 9,4 C 16,1 km/h (3 Bft)
23.06.2009 02:34 13,7 C 87 % 1026,5 hPa 0,0 l/m 13,9 km/h (3 Bft) N-NO 25 0 min 0 W/m 11,6 C 10,0 C 13,9 km/h (3 Bft)
23.06.2009 02:39 13,8 C 88 % 1026,5 hPa 0,0 l/m 13,9 km/h (3 Bft) N-NO 25 0 min 0 W/m 11,8 C 10,1 C 13,9 km/h (3 Bft)
23.06.2009 02:44 13,8 C 88 % 1026,5 hPa 0,0 l/m 13,8 km/h (3 Bft) N-NO 20 0 min 0 W/m 11,8 C 10,2 C 13,8 km/h (3 Bft)
23.06.2009 02:49 13,8 C 88 % 1026,5 hPa 0,0 l/m 15,5 km/h (3 Bft) N-NO 20 0 min 0 W/m 11,8 C 9,6 C 15,5 km/h (3 Bft)
23.06.2009 02:54 13,7 C 88 % 1026,5 hPa 0,0 l/m 12,1 km/h (2 Bft) N-NO 20 0 min 0 W/m 11,7 C 10,7 C 12,1 km/h (2 Bft)
23.06.2009 03:00 13,6 C 88 % 1026,5 hPa 0,0 l/m 14,5 km/h (3 Bft) N 10 0 min 0 W/m 11,6 C 9,7 C 14,5 km/h (3 Bft)
23.06.2009 03:05 13,6 C 88 % 1026,5 hPa 0,0 l/m 14,6 km/h (3 Bft) NO 40 0 min 0 W/m 11,6 C 9,6 C 14,6 km/h (3 Bft)
23.06.2009 03:09 13,6 C 88 % 1026,5 hPa 0,0 l/m 8,7 km/h (2 Bft) N-NO 20 0 min 0 W/m 11,6 C 12,2 C 8,7 km/h (2 Bft)
23.06.2009 03:14 13,6 C 88 % 1026,5 hPa 0,0 l/m 12,5 km/h (2 Bft) NO 35 0 min 0 W/m 11,6 C 10,5 C 12,5 km/h (2 Bft)
23.06.2009 03:19 13,6 C 88 % 1026,5 hPa 0,0 l/m 14,3 km/h (3 Bft) N-NO 20 0 min 0 W/m 11,6 C 9,7 C 14,3 km/h (3 Bft)
23.06.2009 03:24 13,5 C 88 % 1026,5 hPa 0,0 l/m 11,9 km/h (2 Bft) N 10 0 min 0 W/m 11,6 C 10,6 C 11,9 km/h (2 Bft)
23.06.2009 03:30 13,4 C 88 % 1026,5 hPa 0,0 l/m 10,9 km/h (2 Bft) N 10 0 min 0 W/m 11,5 C 10,9 C 10,9 km/h (2 Bft)
23.06.2009 03:35 13,4 C 88 % 1026,5 hPa 0,0 l/m 12,8 km/h (3 Bft) N-NO 25 0 min 0 W/m 11,5 C 10,1 C 12,8 km/h (3 Bft)
23.06.2009 03:39 13,4 C 88 % 1026,5 hPa 0,0 l/m 12,1 km/h (2 Bft) N-NO 15 0 min 0 W/m 11,5 C 10,4 C 12,1 km/h (2 Bft)
23.06.2009 03:44 13,3 C 88 % 1026,5 hPa 0,0 l/m 12,6 km/h (3 Bft) N-NO 20 0 min 0 W/m 11,4 C 10,1 C 12,6 km/h (3 Bft)
23.06.2009 03:49 13,3 C 88 % 1026,5 hPa 0,0 l/m 13,8 km/h (3 Bft) N 10 0 min 0 W/m 11,4 C 9,6 C 13,8 km/h (3 Bft)
23.06.2009 03:54 13,3 C 88 % 1026,5 hPa 0,0 l/m 10,7 km/h (2 Bft) N-NO 20 0 min 0 W/m 11,4 C 10,9 C 10,7 km/h (2 Bft)
23.06.2009 03:59 13,3 C 89 % 1026,5 hPa 0,0 l/m 8,7 km/h (2 Bft) N-NO 15 0 min 0 W/m 11,5 C 11,9 C 8,7 km/h (2 Bft)
23.06.2009 04:04 13,2 C 89 % 1026,5 hPa 0,0 l/m 10,6 km/h (2 Bft) N 10 0 min 0 W/m 11,4 C 10,8 C 10,6 km/h (2 Bft)
23.06.2009 04:10 13,2 C 89 % 1026,5 hPa 0,0 l/m 7,9 km/h (2 Bft) N-NO 25 0 min 0 W/m 11,4 C 12,3 C 7,9 km/h (2 Bft)
23.06.2009 04:14 13,2 C 89 % 1026,5 hPa 0,0 l/m 13,8 km/h (3 Bft) N-NO 20 0 min 0 W/m 11,4 C 9,5 C 13,8 km/h (3 Bft)
23.06.2009 04:19 13,1 C 89 % 1026,5 hPa 0,0 l/m 10,3 km/h (2 Bft) N-NO 20 0 min 0 W/m 11,3 C 10,9 C 10,3 km/h (2 Bft)
23.06.2009 04:24 13,1 C 89 % 1026,5 hPa 0,0 l/m 10,3 km/h (2 Bft) N-NO 15 0 min 0 W/m 11,3 C 10,9 C 10,3 km/h (2 Bft)
23.06.2009 04:29 13,0 C 89 % 1026,5 hPa 0,0 l/m 11,8 km/h (2 Bft) N-NO 30 0 min 0 W/m 11,2 C 10,1 C 11,8 km/h (2 Bft)
23.06.2009 04:34 12,9 C 88 % 1026,5 hPa 0,0 l/m 9,6 km/h (2 Bft) N-NO 15 0 min 0 W/m 11,0 C 11,0 C 9,6 km/h (2 Bft)
23.06.2009 04:39 12,9 C 89 % 1026,5 hPa 0,0 l/m 10,7 km/h (2 Bft) N-NO 15 0 min 0 W/m 11,1 C 10,5 C 10,7 km/h (2 Bft)
23.06.2009 04:44 13,0 C 89 % 1026,5 hPa 0,0 l/m 9,6 km/h (2 Bft) N-NO 25 0 min 0 W/m 11,2 C 11,1 C 9,6 km/h (2 Bft)
23.06.2009 04:50 13,2 C 89 % 1026,5 hPa 0,0 l/m 12,8 km/h (3 Bft) N-NO 25 0 min 0 W/m 11,4 C 9,9 C 12,8 km/h (3 Bft)
23.06.2009 04:55 13,2 C 89 % 1026,5 hPa 0,0 l/m 9,2 km/h (2 Bft) N-NO 20 0 min 0 W/m 11,4 C 11,5 C 9,2 km/h (2 Bft)
23.06.2009 04:59 13,4 C 88 % 1026,5 hPa 0,0 l/m 11,6 km/h (2 Bft) N-NO 15 0 min 0 W/m 11,5 C 10,6 C 11,6 km/h (2 Bft)
23.06.2009 05:04 13,6 C 88 % 1026,5 hPa 0,0 l/m 9,9 km/h (2 Bft) N-NO 30 0 min 0 W/m 11,6 C 11,6 C 9,9 km/h (2 Bft)
23.06.2009 05:09 13,6 C 88 % 1026,5 hPa 0,0 l/m 11,3 km/h (2 Bft) N-NO 20 0 min 0 W/m 11,6 C 11,0 C 11,3 km/h (2 Bft)
23.06.2009 05:15 13,7 C 87 % 1026,5 hPa 0,0 l/m 13,5 km/h (3 Bft) N-NO 20 0 min 0 W/m 11,6 C 10,2 C 13,5 km/h (3 Bft)
23.06.2009 05:20 13,6 C 87 % 1026,5 hPa 0,0 l/m 9,4 km/h (2 Bft) N-NO 30 0 min 0 W/m 11,5 C 11,9 C 9,4 km/h (2 Bft)
23.06.2009 05:25 13,7 C 87 % 1026,5 hPa 0,0 l/m 11,0 km/h (2 Bft) N-NO 25 0 min 0 W/m 11,6 C 11,2 C 11,0 km/h (2 Bft)
23.06.2009 05:29 13,7 C 87 % 1026,5 hPa 0,0 l/m 11,4 km/h (2 Bft) N-NO 25 0 min 0 W/m 11,6 C 11,0 C 11,4 km/h (2 Bft)
23.06.2009 05:34 13,7 C 87 % 1026,5 hPa 0,0 l/m 7,3 km/h (2 Bft) N-NO 25 0 min 0 W/m 11,6 C 13,2 C 7,3 km/h (2 Bft)
23.06.2009 05:39 13,8 C 87 % 1026,5 hPa 0,0 l/m 9,7 km/h (2 Bft) N-NO 20 0 min 0 W/m 11,7 C 11,9 C 9,7 km/h (2 Bft)
23.06.2009 05:44 13,8 C 86 % 1026,5 hPa 0,0 l/m 8,9 km/h (2 Bft) N-NO 25 0 min 0 W/m 11,5 C 12,3 C 8,9 km/h (2 Bft)
23.06.2009 05:49 13,9 C 86 % 1026,5 hPa 0,0 l/m 8,8 km/h (2 Bft) N-NO 15 0 min 0 W/m 11,6 C 12,5 C 8,8 km/h (2 Bft)
23.06.2009 05:54 13,9 C 86 % 1026,5 hPa 0,0 l/m 8,7 km/h (2 Bft) N-NO 20 0 min 0 W/m 11,6 C 12,6 C 8,7 km/h (2 Bft)
23.06.2009 06:00 13,9 C 86 % 1026,5 hPa 0,0 l/m 9,4 km/h (2 Bft) N-NO 15 0 min 0 W/m 11,6 C 12,2 C 9,4 km/h (2 Bft)
23.06.2009 06:05 14,0 C 86 % 1026,5 hPa 0,0 l/m 9,0 km/h (2 Bft) N-NO 15 0 min 0 W/m 11,7 C 12,5 C 9,0 km/h (2 Bft)
23.06.2009 06:09 13,9 C 85 % 1026,5 hPa 0,0 l/m 8,1 km/h (2 Bft) N-NO 20 0 min 0 W/m 11,4 C 12,9 C 8,1 km/h (2 Bft)
23.06.2009 06:14 13,9 C 85 % 1026,5 hPa 0,0 l/m 8,5 km/h (2 Bft) N-NO 25 0 min 0 W/m 11,4 C 12,7 C 8,5 km/h (2 Bft)
23.06.2009 06:19 13,9 C 85 % 1026,5 hPa 0,0 l/m 5,9 km/h (2 Bft) N-NO 30 0 min 0 W/m 11,4 C 13,9 C 5,9 km/h (2 Bft)
23.06.2009 06:24 13,9 C 85 % 1026,5 hPa 0,0 l/m 10,5 km/h (2 Bft) NO 35 0 min 0 W/m 11,4 C 11,7 C 10,5 km/h (2 Bft)
23.06.2009 06:30 14,0 C 85 % 1026,5 hPa 0,0 l/m 8,1 km/h (2 Bft) N-NO 30 0 min 0 W/m 11,5 C 13,0 C 8,1 km/h (2 Bft)
23.06.2009 06:35 14,0 C 85 % 1026,5 hPa 0,0 l/m 9,6 km/h (2 Bft) NO 35 0 min 0 W/m 11,5 C 12,2 C 9,6 km/h (2 Bft)
23.06.2009 06:39 14,0 C 85 % 1026,5 hPa 0,0 l/m 7,0 km/h (2 Bft) N 10 0 min 0 W/m 11,5 C 13,6 C 7,0 km/h (2 Bft)
23.06.2009 06:44 14,0 C 85 % 1026,5 hPa 0,0 l/m 11,6 km/h (2 Bft) N-NO 20 0 min 0 W/m 11,5 C 11,3 C 11,6 km/h (2 Bft)
23.06.2009 06:49 14,0 C 85 % 1026,5 hPa 0,0 l/m 12,5 km/h (2 Bft) N-NO 25 0 min 0 W/m 11,5 C 10,9 C 12,5 km/h (2 Bft)
23.06.2009 06:54 14,0 C 85 % 1026,5 hPa 0,0 l/m 11,5 km/h (2 Bft) N 10 0 min 0 W/m 11,5 C 11,3 C 11,5 km/h (2 Bft)
23.06.2009 06:59 14,0 C 85 % 1026,5 hPa 0,0 l/m 11,5 km/h (2 Bft) N 10 0 min 0 W/m 11,5 C 11,3 C 11,5 km/h (2 Bft)
23.06.2009 07:04 14,1 C 85 % 1026,5 hPa 0,0 l/m 15,7 km/h (3 Bft) N-NO 30 0 min 0 W/m 11,6 C 9,9 C 15,7 km/h (3 Bft)
23.06.2009 07:10 14,1 C 86 % 1026,5 hPa 0,0 l/m 15,7 km/h (3 Bft) N-NO 30 0 min 0 W/m 11,8 C 9,9 C 15,7 km/h (3 Bft)
23.06.2009 07:14 14,2 C 86 % 1026,5 hPa 0,0 l/m 12,1 km/h (2 Bft) NO 40 0 min 0 W/m 11,9 C 11,3 C 12,1 km/h (2 Bft)
23.06.2009 07:19 14,3 C 86 % 1026,5 hPa 0,0 l/m 12,3 km/h (2 Bft) N-NO 25 0 min 0 W/m 12,0 C 11,3 C 12,3 km/h (2 Bft)
23.06.2009 07:24 14,3 C 86 % 1026,5 hPa 0,0 l/m 13,8 km/h (3 Bft) N-NO 25 0 min 0 W/m 12,0 C 10,8 C 13,8 km/h (3 Bft)
23.06.2009 07:29 14,4 C 86 % 1026,5 hPa 0,0 l/m 13,5 km/h (3 Bft) N-NO 30 0 min 0 W/m 12,1 C 11,0 C 13,5 km/h (3 Bft)
23.06.2009 07:34 14,3 C 86 % 1026,5 hPa 0,0 l/m 12,3 km/h (2 Bft) N-NO 15 0 min 0 W/m 12,0 C 11,3 C 12,3 km/h (2 Bft)
23.06.2009 07:39 14,4 C 86 % 1026,5 hPa 0,0 l/m 17,8 km/h (3 Bft) N-NO 30 0 min 0 W/m 12,1 C 9,6 C 17,8 km/h (3 Bft)
23.06.2009 07:45 14,4 C 85 % 1026,5 hPa 0,0 l/m 13,8 km/h (3 Bft) N 10 0 min 0 W/m 11,9 C 10,9 C 13,8 km/h (3 Bft)
23.06.2009 07:50 14,5 C 85 % 1026,5 hPa 0,0 l/m 14,4 km/h (3 Bft) N-NO 15 0 min 0 W/m 12,0 C 10,8 C 14,4 km/h (3 Bft)
23.06.2009 07:54 14,5 C 85 % 1026,5 hPa 0,0 l/m 13,4 km/h (3 Bft) N-NO 25 0 min 0 W/m 12,0 C 11,2 C 13,4 km/h (3 Bft)
23.06.2009 07:59 14,6 C 85 % 1026,5 hPa 0,0 l/m 12,4 km/h (2 Bft) N-NO 30 0 min 0 W/m 12,1 C 11,7 C 12,4 km/h (2 Bft)
23.06.2009 08:04 14,7 C 84 % 1026,5 hPa 0,0 l/m 12,6 km/h (3 Bft) NO 40 0 min 0 W/m 12,0 C 11,7 C 12,6 km/h (3 Bft)
23.06.2009 08:10 14,7 C 84 % 1026,5 hPa 0,0 l/m 14,3 km/h (3 Bft) NO 35 0 min 0 W/m 12,0 C 11,1 C 14,3 km/h (3 Bft)
23.06.2009 08:15 14,9 C 84 % 1026,5 hPa 0,0 l/m 15,1 km/h (3 Bft) N-NO 30 0 min 0 W/m 12,2 C 11,0 C 15,1 km/h (3 Bft)
23.06.2009 08:19 15,2 C 84 % 1027,5 hPa 0,0 l/m 13,1 km/h (3 Bft) N-NO 20 0 min 0 W/m 12,5 C 12,1 C 13,1 km/h (3 Bft)
23.06.2009 08:24 15,6 C 83 % 1027,5 hPa 0,0 l/m 12,4 km/h (2 Bft) N-NO 30 0 min 0 W/m 12,7 C 12,8 C 12,4 km/h (2 Bft)
23.06.2009 08:29 15,8 C 83 % 1027,5 hPa 0,0 l/m 13,1 km/h (3 Bft) N-NO 30 0 min 0 W/m 12,9 C 12,8 C 13,1 km/h (3 Bft)
23.06.2009 08:34 16,0 C 81 % 1027,5 hPa 0,0 l/m 12,8 km/h (3 Bft) N 5 0 min 0 W/m 12,7 C 13,1 C 12,8 km/h (3 Bft)
23.06.2009 08:39 15,9 C 81 % 1027,5 hPa 0,0 l/m 12,7 km/h (3 Bft) N-NO 20 0 min 0 W/m 12,6 C 13,1 C 12,7 km/h (3 Bft)
23.06.2009 08:44 15,9 C 81 % 1027,5 hPa 0,0 l/m 15,9 km/h (3 Bft) NO 50 0 min 0 W/m 12,6 C 12,0 C 15,9 km/h (3 Bft)
23.06.2009 08:50 16,0 C 81 % 1027,5 hPa 0,0 l/m 8,7 km/h (2 Bft) N-NO 15 0 min 0 W/m 12,7 C 14,8 C 8,7 km/h (2 Bft)
23.06.2009 08:55 15,9 C 81 % 1027,5 hPa 0,0 l/m 10,0 km/h (2 Bft) N-NO 25 0 min 0 W/m 12,6 C 14,1 C 10,0 km/h (2 Bft)
23.06.2009 08:59 15,9 C 80 % 1027,5 hPa 0,0 l/m 14,6 km/h (3 Bft) N-NO 25 0 min 0 W/m 12,5 C 12,4 C 14,6 km/h (3 Bft)
23.06.2009 09:04 16,0 C 80 % 1027,5 hPa 0,0 l/m 10,0 km/h (2 Bft) N-NO 25 0 min 0 W/m 12,5 C 14,2 C 10,0 km/h (2 Bft)
23.06.2009 09:09 16,0 C 81 % 1027,5 hPa 0,0 l/m 10,7 km/h (2 Bft) N-NO 25 0 min 0 W/m 12,7 C 13,9 C 10,7 km/h (2 Bft)
23.06.2009 09:14 16,1 C 81 % 1027,5 hPa 0,0 l/m 15,1 km/h (3 Bft) N-NO 15 0 min 0 W/m 12,8 C 12,5 C 15,1 km/h (3 Bft)
23.06.2009 09:20 16,2 C 80 % 1027,5 hPa 0,0 l/m 12,1 km/h (2 Bft) N-NO 25 0 min 0 W/m 12,7 C 13,6 C 12,1 km/h (2 Bft)
23.06.2009 09:25 16,2 C 81 % 1027,5 hPa 0,0 l/m 12,9 km/h (3 Bft) N-NO 25 0 min 0 W/m 12,9 C 13,3 C 12,9 km/h (3 Bft)
23.06.2009 09:29 16,4 C 80 % 1027,5 hPa 0,0 l/m 11,2 km/h (2 Bft) NO 35 0 min 0 W/m 12,9 C 14,2 C 11,2 km/h (2 Bft)
23.06.2009 09:34 16,4 C 80 % 1027,5 hPa 0,0 l/m 13,5 km/h (3 Bft) N-NO 20 0 min 0 W/m 12,9 C 13,4 C 13,5 km/h (3 Bft)
23.06.2009 09:39 16,6 C 80 % 1027,5 hPa 0,0 l/m 11,5 km/h (2 Bft) NO 55 0 min 0 W/m 13,1 C 14,3 C 11,5 km/h (2 Bft)
23.06.2009 09:44 16,9 C 80 % 1027,5 hPa 0,0 l/m 12,3 km/h (2 Bft) N 5 0 min 0 W/m 13,4 C 14,4 C 12,3 km/h (2 Bft)
23.06.2009 09:49 17,4 C 81 % 1027,5 hPa 0,0 l/m 12,2 km/h (2 Bft) NO 35 0 min 0 W/m 14,1 C 15,0 C 12,2 km/h (2 Bft)
23.06.2009 09:54 19,4 C 79 % 1027,5 hPa 0,0 l/m 9,6 km/h (2 Bft) N-NO 20 0 min 0 W/m 15,7 C 18,1 C 9,6 km/h (2 Bft)
23.06.2009 10:00 21,0 C 72 % 1027,5 hPa 0,0 l/m 10,3 km/h (2 Bft) N 355 0 min 0 W/m 15,8 C 19,7 C 10,3 km/h (2 Bft)
23.06.2009 10:04 21,7 C 69 % 1027,5 hPa 0,0 l/m 13,4 km/h (3 Bft) N-NO 25 0 min 0 W/m 15,8 C 19,7 C 13,4 km/h (3 Bft)
23.06.2009 10:09 22,4 C 65 % 1027,5 hPa 0,0 l/m 14,7 km/h (3 Bft) O-NO 60 0 min 0 W/m 15,5 C 20,2 C 14,7 km/h (3 Bft)
23.06.2009 10:14 22,6 C 63 % 1027,5 hPa 0,0 l/m 9,3 km/h (2 Bft) NO 45 0 min 0 W/m 15,2 C 21,7 C 9,3 km/h (2 Bft)
23.06.2009 10:19 22,9 C 60 % 1027,5 hPa 0,0 l/m 12,9 km/h (3 Bft) N-NO 30 0 min 0 W/m 14,7 C 21,2 C 12,9 km/h (3 Bft)
23.06.2009 10:25 23,1 C 61 % 1027,5 hPa 0,0 l/m 14,3 km/h (3 Bft) N-NO 30 0 min 0 W/m 15,2 C 21,1 C 14,3 km/h (3 Bft)
23.06.2009 10:30 23,2 C 59 % 1027,5 hPa 0,0 l/m 12,8 km/h (3 Bft) NO 40 0 min 0 W/m 14,7 C 21,5 C 12,8 km/h (3 Bft)
23.06.2009 10:34 23,4 C 58 % 1027,5 hPa 0,0 l/m 15,3 km/h (3 Bft) N-NO 20 0 min 0 W/m 14,7 C 21,3 C 15,3 km/h (3 Bft)
23.06.2009 10:39 23,4 C 57 % 1027,5 hPa 0,0 l/m 12,8 km/h (3 Bft) NO 35 0 min 0 W/m 14,4 C 21,8 C 12,8 km/h (3 Bft)
23.06.2009 10:44 23,6 C 58 % 1027,5 hPa 0,0 l/m 15,6 km/h (3 Bft) NO 35 0 min 0 W/m 14,8 C 21,5 C 15,6 km/h (3 Bft)
23.06.2009 10:49 23,8 C 58 % 1027,5 hPa 0,0 l/m 9,2 km/h (2 Bft) N-NO 15 0 min 0 W/m 15,0 C 23,0 C 9,2 km/h (2 Bft)
23.06.2009 10:54 23,7 C 57 % 1027,5 hPa 0,0 l/m 9,9 km/h (2 Bft) N-NO 30 0 min 0 W/m 14,7 C 22,8 C 9,9 km/h (2 Bft)
23.06.2009 10:59 23,6 C 56 % 1027,5 hPa 0,0 l/m 12,6 km/h (3 Bft) N-NO 15 0 min 0 W/m 14,3 C 22,1 C 12,6 km/h (3 Bft)
23.06.2009 11:05 23,3 C 57 % 1027,5 hPa 0,0 l/m 13,3 km/h (3 Bft) N-NO 30 0 min 0 W/m 14,3 C 21,6 C 13,3 km/h (3 Bft)
23.06.2009 11:09 23,2 C 55 % 1027,5 hPa 0,0 l/m 14,0 km/h (3 Bft) N-NO 25 0 min 0 W/m 13,6 C 21,3 C 14,0 km/h (3 Bft)
23.06.2009 11:14 22,8 C 55 % 1027,5 hPa 0,0 l/m 13,5 km/h (3 Bft) NO 40 0 min 0 W/m 13,3 C 20,9 C 13,5 km/h (3 Bft)
23.06.2009 11:19 22,6 C 57 % 1027,5 hPa 0,0 l/m 13,9 km/h (3 Bft) NO 40 0 min 0 W/m 13,6 C 20,6 C 13,9 km/h (3 Bft)
23.06.2009 11:24 22,6 C 59 % 1027,5 hPa 0,0 l/m 14,1 km/h (3 Bft) N 360 0 min 0 W/m 14,2 C 20,6 C 14,1 km/h (3 Bft)
23.06.2009 11:30 22,5 C 59 % 1027,5 hPa 0,0 l/m 21,0 km/h (4 Bft) N-NO 15 0 min 0 W/m 14,1 C 19,3 C 21,0 km/h (4 Bft)
23.06.2009 11:34 22,4 C 60 % 1027,5 hPa 0,0 l/m 20,7 km/h (4 Bft) NO 35 0 min 0 W/m 14,2 C 19,2 C 20,7 km/h (4 Bft)
23.06.2009 11:39 22,4 C 61 % 1027,5 hPa 0,0 l/m 15,3 km/h (3 Bft) N-NO 15 0 min 0 W/m 14,5 C 20,1 C 15,3 km/h (3 Bft)
23.06.2009 11:44 22,5 C 60 % 1027,5 hPa 0,0 l/m 20,8 km/h (4 Bft) N 10 0 min 0 W/m 14,3 C 19,3 C 20,8 km/h (4 Bft)
23.06.2009 11:49 22,4 C 59 % 1027,5 hPa 0,0 l/m 20,0 km/h (4 Bft) N-NO 20 0 min 0 W/m 14,0 C 19,3 C 20,0 km/h (4 Bft)
23.06.2009 11:54 22,4 C 60 % 1027,5 hPa 0,0 l/m 15,8 km/h (3 Bft) N-NO 25 0 min 0 W/m 14,2 C 20,0 C 15,8 km/h (3 Bft)
23.06.2009 11:59 22,4 C 59 % 1027,5 hPa 0,0 l/m 19,4 km/h (3 Bft) NO 35 0 min 0 W/m 14,0 C 19,4 C 19,4 km/h (3 Bft)
23.06.2009 12:04 22,3 C 60 % 1027,5 hPa 0,0 l/m 13,3 km/h (3 Bft) N-NO 30 0 min 0 W/m 14,2 C 20,4 C 13,3 km/h (3 Bft)
23.06.2009 12:09 22,3 C 59 % 1027,5 hPa 0,0 l/m 19,5 km/h (3 Bft) N-NO 30 0 min 0 W/m 13,9 C 19,3 C 19,5 km/h (3 Bft)
23.06.2009 12:14 22,5 C 59 % 1027,5 hPa 0,0 l/m 20,1 km/h (4 Bft) N-NO 15 0 min 0 W/m 14,1 C 19,4 C 20,1 km/h (4 Bft)
23.06.2009 12:19 22,4 C 58 % 1027,5 hPa 0,0 l/m 18,8 km/h (3 Bft) N-NO 30 0 min 0 W/m 13,7 C 19,5 C 18,8 km/h (3 Bft)
23.06.2009 12:24 22,4 C 60 % 1027,5 hPa 0,0 l/m 20,3 km/h (4 Bft) N-NO 25 0 min 0 W/m 14,2 C 19,3 C 20,3 km/h (4 Bft)
23.06.2009 12:29 22,4 C 60 % 1027,5 hPa 0,0 l/m 19,8 km/h (3 Bft) N-NO 20 0 min 0 W/m 14,2 C 19,3 C 19,8 km/h (3 Bft)
23.06.2009 12:35 22,3 C 62 % 1026,5 hPa 0,0 l/m 21,3 km/h (4 Bft) N 5 0 min 0 W/m 14,7 C 19,0 C 21,3 km/h (4 Bft)
23.06.2009 12:40 22,2 C 62 % 1026,5 hPa 0,0 l/m 25,0 km/h (4 Bft) N 5 0 min 0 W/m 14,6 C 18,4 C 25,0 km/h (4 Bft)
23.06.2009 12:44 21,9 C 63 % 1026,5 hPa 0,0 l/m 23,1 km/h (4 Bft) N-NO 15 0 min 0 W/m 14,5 C 18,2 C 23,1 km/h (4 Bft)
23.06.2009 12:49 21,8 C 63 % 1026,5 hPa 0,0 l/m 24,6 km/h (4 Bft) N 5 0 min 0 W/m 14,4 C 17,9 C 24,6 km/h (4 Bft)
23.06.2009 12:54 21,7 C 64 % 1026,5 hPa 0,0 l/m 22,0 km/h (4 Bft) N 360 0 min 0 W/m 14,6 C 18,1 C 22,0 km/h (4 Bft)
23.06.2009 12:59 21,6 C 64 % 1026,5 hPa 0,0 l/m 22,5 km/h (4 Bft) N-NO 15 0 min 0 W/m 14,5 C 17,9 C 22,5 km/h (4 Bft)
23.06.2009 13:04 21,7 C 65 % 1026,5 hPa 0,0 l/m 23,1 km/h (4 Bft) N 360 0 min 0 W/m 14,8 C 17,9 C 23,1 km/h (4 Bft)
23.06.2009 13:09 21,7 C 65 % 1026,5 hPa 0,0 l/m 24,8 km/h (4 Bft) N 360 0 min 0 W/m 14,8 C 17,7 C 24,8 km/h (4 Bft)
23.06.2009 13:14 21,8 C 63 % 1026,5 hPa 0,0 l/m 25,5 km/h (4 Bft) N 10 0 min 0 W/m 14,4 C 17,8 C 25,5 km/h (4 Bft)
23.06.2009 13:19 21,5 C 63 % 1026,5 hPa 0,0 l/m 21,3 km/h (4 Bft) N-NO 25 0 min 0 W/m 14,2 C 17,9 C 21,3 km/h (4 Bft)
23.06.2009 13:24 21,3 C 63 % 1026,5 hPa 0,0 l/m 28,5 km/h (5 Bft) N-NO 20 0 min 0 W/m 14,0 C 16,7 C 28,5 km/h (5 Bft)
23.06.2009 13:29 21,3 C 63 % 1026,5 hPa 0,0 l/m 22,6 km/h (4 Bft) N-NO 20 0 min 0 W/m 14,0 C 17,5 C 22,6 km/h (4 Bft)
23.06.2009 13:34 21,4 C 64 % 1026,5 hPa 0,0 l/m 24,5 km/h (4 Bft) N 10 0 min 0 W/m 14,3 C 17,3 C 24,5 km/h (4 Bft)
23.06.2009 13:40 21,5 C 65 % 1026,5 hPa 0,0 l/m 25,5 km/h (4 Bft) N-NO 20 0 min 0 W/m 14,6 C 17,4 C 25,5 km/h (4 Bft)
23.06.2009 13:45 21,4 C 65 % 1026,5 hPa 0,0 l/m 26,9 km/h (4 Bft) N-NO 15 0 min 0 W/m 14,5 C 17,0 C 26,9 km/h (4 Bft)
23.06.2009 13:49 21,2 C 65 % 1026,5 hPa 0,0 l/m 25,1 km/h (4 Bft) N-NO 25 0 min 0 W/m 14,4 C 17,0 C 25,1 km/h (4 Bft)
23.06.2009 13:54 21,2 C 64 % 1026,5 hPa 0,0 l/m 23,6 km/h (4 Bft) N-NO 15 0 min 0 W/m 14,1 C 17,2 C 23,6 km/h (4 Bft)
23.06.2009 13:59 21,2 C 65 % 1026,5 hPa 0,0 l/m 26,1 km/h (4 Bft) N-NO 15 0 min 0 W/m 14,4 C 16,9 C 26,1 km/h (4 Bft)
23.06.2009 14:04 21,1 C 65 % 1026,5 hPa 0,0 l/m 27,5 km/h (5 Bft) N 350 0 min 0 W/m 14,3 C 16,6 C 27,5 km/h (5 Bft)
23.06.2009 14:09 21,1 C 65 % 1026,5 hPa 0,0 l/m 27,6 km/h (5 Bft) N-NO 20 0 min 0 W/m 14,3 C 16,5 C 27,6 km/h (5 Bft)
23.06.2009 14:14 21,1 C 66 % 1026,5 hPa 0,0 l/m 25,1 km/h (4 Bft) N 10 0 min 0 W/m 14,5 C 16,9 C 25,1 km/h (4 Bft)
23.06.2009 14:19 20,9 C 66 % 1026,5 hPa 0,0 l/m 26,5 km/h (4 Bft) N-NO 25 0 min 0 W/m 14,3 C 16,4 C 26,5 km/h (4 Bft)
23.06.2009 14:24 20,9 C 66 % 1026,5 hPa 0,0 l/m 23,7 km/h (4 Bft) N 10 0 min 0 W/m 14,3 C 16,8 C 23,7 km/h (4 Bft)
23.06.2009 14:29 20,9 C 66 % 1026,5 hPa 0,0 l/m 28,0 km/h (5 Bft) N-NO 15 0 min 0 W/m 14,3 C 16,2 C 28,0 km/h (5 Bft)
23.06.2009 14:34 21,0 C 66 % 1026,5 hPa 0,0 l/m 28,5 km/h (5 Bft) N 5 0 min 0 W/m 14,4 C 16,3 C 28,5 km/h (5 Bft)
23.06.2009 14:40 21,1 C 66 % 1026,5 hPa 0,0 l/m 28,8 km/h (5 Bft) N 5 0 min 0 W/m 14,5 C 16,4 C 28,8 km/h (5 Bft)
23.06.2009 14:45 21,2 C 65 % 1026,5 hPa 0,0 l/m 26,3 km/h (4 Bft) N-NO 25 0 min 0 W/m 14,4 C 16,8 C 26,3 km/h (4 Bft)
23.06.2009 14:49 21,2 C 65 % 1026,5 hPa 0,0 l/m 28,2 km/h (5 Bft) N-NO 25 0 min 0 W/m 14,4 C 16,6 C 28,2 km/h (5 Bft)
23.06.2009 14:54 21,3 C 66 % 1026,5 hPa 0,0 l/m 21,5 km/h (4 Bft) N 360 0 min 0 W/m 14,7 C 17,6 C 21,5 km/h (4 Bft)
23.06.2009 14:59 21,6 C 65 % 1026,5 hPa 0,0 l/m 20,8 km/h (4 Bft) N-NO 25 0 min 0 W/m 14,7 C 18,1 C 20,8 km/h (4 Bft)
23.06.2009 15:04 21,4 C 64 % 1026,5 hPa 0,0 l/m 28,0 km/h (5 Bft) N 5 0 min 0 W/m 14,3 C 16,9 C 28,0 km/h (5 Bft)
23.06.2009 15:09 21,3 C 64 % 1026,5 hPa 0,0 l/m 27,5 km/h (5 Bft) N-NO 25 0 min 0 W/m 14,2 C 16,8 C 27,5 km/h (5 Bft)
23.06.2009 15:14 21,4 C 64 % 1026,5 hPa 0,0 l/m 23,4 km/h (4 Bft) N-NO 25 0 min 0 W/m 14,3 C 17,5 C 23,4 km/h (4 Bft)
23.06.2009 15:19 21,4 C 65 % 1026,5 hPa 0,0 l/m 23,5 km/h (4 Bft) N-NO 20 0 min 0 W/m 14,5 C 17,5 C 23,5 km/h (4 Bft)
23.06.2009 15:24 21,2 C 65 % 1026,5 hPa 0,0 l/m 30,6 km/h (5 Bft) N 5 0 min 0 W/m 14,4 C 16,3 C 30,6 km/h (5 Bft)
23.06.2009 15:29 21,2 C 65 % 1026,5 hPa 0,0 l/m 25,3 km/h (4 Bft) N 10 0 min 0 W/m 14,4 C 17,0 C 25,3 km/h (4 Bft)
23.06.2009 15:34 21,2 C 65 % 1026,5 hPa 0,0 l/m 28,6 km/h (5 Bft) N-NO 15 0 min 0 W/m 14,4 C 16,6 C 28,6 km/h (5 Bft)
23.06.2009 15:40 21,2 C 66 % 1026,5 hPa 0,0 l/m 25,8 km/h (4 Bft) N-NO 25 0 min 0 W/m 14,6 C 16,9 C 25,8 km/h (4 Bft)
23.06.2009 15:44 21,1 C 66 % 1026,5 hPa 0,0 l/m 26,7 km/h (4 Bft) N-NO 25 0 min 0 W/m 14,5 C 16,7 C 26,7 km/h (4 Bft)
23.06.2009 15:49 21,2 C 65 % 1026,5 hPa 0,0 l/m 25,9 km/h (4 Bft) N-NO 25 0 min 0 W/m 14,4 C 16,9 C 25,9 km/h (4 Bft)
23.06.2009 15:54 21,2 C 66 % 1026,5 hPa 0,0 l/m 21,7 km/h (4 Bft) N 10 0 min 0 W/m 14,6 C 17,5 C 21,7 km/h (4 Bft)
23.06.2009 15:59 21,4 C 65 % 1026,5 hPa 0,0 l/m 16,2 km/h (3 Bft) N 10 0 min 0 W/m 14,5 C 18,7 C 16,2 km/h (3 Bft)
23.06.2009 16:04 21,2 C 66 % 1025,5 hPa 0,0 l/m 24,5 km/h (4 Bft) N-NO 15 0 min 0 W/m 14,6 C 17,1 C 24,5 km/h (4 Bft)
23.06.2009 16:09 21,1 C 65 % 1025,5 hPa 0,0 l/m 26,6 km/h (4 Bft) N-NO 15 0 min 0 W/m 14,3 C 16,7 C 26,6 km/h (4 Bft)
23.06.2009 16:14 21,0 C 66 % 1025,5 hPa 0,0 l/m 29,0 km/h (5 Bft) N 5 0 min 0 W/m 14,4 C 16,2 C 29,0 km/h (5 Bft)
23.06.2009 16:19 21,0 C 67 % 1025,5 hPa 0,0 l/m 25,0 km/h (4 Bft) N-NO 20 0 min 0 W/m 14,6 C 16,7 C 25,0 km/h (4 Bft)
23.06.2009 16:24 20,9 C 66 % 1025,5 hPa 0,0 l/m 30,7 km/h (5 Bft) N-NO 20 0 min 0 W/m 14,3 C 15,9 C 30,7 km/h (5 Bft)
23.06.2009 16:29 20,8 C 66 % 1025,5 hPa 0,0 l/m 25,5 km/h (4 Bft) N-NO 15 0 min 0 W/m 14,2 C 16,4 C 25,5 km/h (4 Bft)
23.06.2009 16:35 20,7 C 67 % 1025,5 hPa 0,0 l/m 27,1 km/h (5 Bft) N-NO 15 0 min 0 W/m 14,3 C 16,1 C 27,1 km/h (5 Bft)
23.06.2009 16:40 20,7 C 67 % 1025,5 hPa 0,0 l/m 25,0 km/h (4 Bft) N-NO 25 0 min 0 W/m 14,3 C 16,3 C 25,0 km/h (4 Bft)
23.06.2009 16:44 20,7 C 67 % 1025,5 hPa 0,0 l/m 21,2 km/h (4 Bft) N-NO 25 0 min 0 W/m 14,3 C 16,9 C 21,2 km/h (4 Bft)
23.06.2009 16:49 20,8 C 68 % 1025,5 hPa 0,0 l/m 26,7 km/h (4 Bft) N-NO 20 0 min 0 W/m 14,7 C 16,2 C 26,7 km/h (4 Bft)
23.06.2009 16:54 20,8 C 67 % 1025,5 hPa 0,0 l/m 27,4 km/h (5 Bft) N-NO 25 0 min 0 W/m 14,4 C 16,2 C 27,4 km/h (5 Bft)
23.06.2009 16:59 20,8 C 68 % 1025,5 hPa 0,0 l/m 21,5 km/h (4 Bft) N-NO 25 0 min 0 W/m 14,7 C 17,0 C 21,5 km/h (4 Bft)
23.06.2009 17:04 20,8 C 67 % 1025,5 hPa 0,0 l/m 27,3 km/h (5 Bft) N-NO 25 0 min 0 W/m 14,4 C 16,2 C 27,3 km/h (5 Bft)
23.06.2009 17:09 20,6 C 67 % 1025,5 hPa 0,0 l/m 22,3 km/h (4 Bft) N-NO 15 0 min 0 W/m 14,3 C 16,6 C 22,3 km/h (4 Bft)
23.06.2009 17:14 20,5 C 68 % 1025,5 hPa 0,0 l/m 21,8 km/h (4 Bft) N-NO 25 0 min 0 W/m 14,4 C 16,5 C 21,8 km/h (4 Bft)
23.06.2009 17:19 20,4 C 68 % 1025,5 hPa 0,0 l/m 26,0 km/h (4 Bft) N-NO 25 0 min 0 W/m 14,3 C 15,8 C 26,0 km/h (4 Bft)
23.06.2009 17:24 20,3 C 67 % 1025,5 hPa 0,0 l/m 25,1 km/h (4 Bft) NO 40 0 min 0 W/m 14,0 C 15,8 C 25,1 km/h (4 Bft)
23.06.2009 17:29 20,1 C 67 % 1025,5 hPa 0,0 l/m 26,6 km/h (4 Bft) N-NO 15 0 min 0 W/m 13,8 C 15,3 C 26,6 km/h (4 Bft)
23.06.2009 17:35 20,2 C 69 % 1025,5 hPa 0,0 l/m 27,3 km/h (5 Bft) N-NO 25 0 min 0 W/m 14,3 C 15,3 C 27,3 km/h (5 Bft)
23.06.2009 17:39 20,3 C 67 % 1025,5 hPa 0,0 l/m 30,9 km/h (5 Bft) N 10 0 min 0 W/m 14,0 C 15,0 C 30,9 km/h (5 Bft)
23.06.2009 17:44 20,2 C 67 % 1025,5 hPa 0,0 l/m 28,0 km/h (5 Bft) N-NO 25 0 min 0 W/m 13,9 C 15,2 C 28,0 km/h (5 Bft)
23.06.2009 17:49 20,0 C 67 % 1025,5 hPa 0,0 l/m 19,9 km/h (4 Bft) N 10 0 min 0 W/m 13,7 C 16,2 C 19,9 km/h (4 Bft)
23.06.2009 17:54 19,8 C 68 % 1025,5 hPa 0,0 l/m 28,8 km/h (5 Bft) N-NO 15 0 min 0 W/m 13,7 C 14,6 C 28,8 km/h (5 Bft)
23.06.2009 17:59 19,8 C 67 % 1025,5 hPa 0,0 l/m 27,8 km/h (5 Bft) N-NO 15 0 min 0 W/m 13,5 C 14,7 C 27,8 km/h (5 Bft)
23.06.2009 18:05 19,6 C 67 % 1025,5 hPa 0,0 l/m 30,7 km/h (5 Bft) NO 35 0 min 0 W/m 13,3 C 14,1 C 30,7 km/h (5 Bft)
23.06.2009 18:09 19,6 C 68 % 1025,5 hPa 0,0 l/m 27,0 km/h (5 Bft) N 10 0 min 0 W/m 13,5 C 14,6 C 27,0 km/h (5 Bft)
23.06.2009 18:14 19,6 C 68 % 1025,5 hPa 0,0 l/m 23,5 km/h (4 Bft) N-NO 20 0 min 0 W/m 13,5 C 15,1 C 23,5 km/h (4 Bft)
23.06.2009 18:19 19,6 C 68 % 1025,5 hPa 0,0 l/m 25,8 km/h (4 Bft) N-NO 30 0 min 0 W/m 13,5 C 14,7 C 25,8 km/h (4 Bft)
23.06.2009 18:24 19,4 C 67 % 1025,5 hPa 0,0 l/m 28,0 km/h (5 Bft) N-NO 25 0 min 0 W/m 13,1 C 14,1 C 28,0 km/h (5 Bft)
23.06.2009 18:30 19,5 C 68 % 1025,5 hPa 0,0 l/m 28,2 km/h (5 Bft) N-NO 20 0 min 0 W/m 13,4 C 14,2 C 28,2 km/h (5 Bft)
23.06.2009 18:34 19,4 C 67 % 1025,5 hPa 0,0 l/m 26,5 km/h (4 Bft) N-NO 25 0 min 0 W/m 13,1 C 14,3 C 26,5 km/h (4 Bft)
23.06.2009 18:39 19,2 C 69 % 1025,5 hPa 0,0 l/m 21,0 km/h (4 Bft) N-NO 15 0 min 0 W/m 13,4 C 15,0 C 21,0 km/h (4 Bft)
23.06.2009 18:44 19,2 C 70 % 1025,5 hPa 0,0 l/m 30,4 km/h (5 Bft) N-NO 15 0 min 0 W/m 13,6 C 13,5 C 30,4 km/h (5 Bft)
23.06.2009 18:49 19,1 C 70 % 1025,5 hPa 0,0 l/m 24,1 km/h (4 Bft) NO 35 0 min 0 W/m 13,5 C 14,3 C 24,1 km/h (4 Bft)
23.06.2009 18:54 19,1 C 69 % 1025,5 hPa 0,0 l/m 29,6 km/h (5 Bft) NO 40 0 min 0 W/m 13,3 C 13,5 C 29,6 km/h (5 Bft)
23.06.2009 18:59 18,9 C 70 % 1025,5 hPa 0,0 l/m 26,1 km/h (4 Bft) N-NO 30 0 min 0 W/m 13,3 C 13,7 C 26,1 km/h (4 Bft)
23.06.2009 19:05 18,7 C 70 % 1025,5 hPa 0,0 l/m 26,2 km/h (4 Bft) N-NO 25 0 min 0 W/m 13,1 C 13,4 C 26,2 km/h (4 Bft)
23.06.2009 19:09 18,7 C 71 % 1025,5 hPa 0,0 l/m 21,1 km/h (4 Bft) NO 45 0 min 0 W/m 13,3 C 14,3 C 21,1 km/h (4 Bft)
23.06.2009 19:14 18,6 C 71 % 1025,5 hPa 0,0 l/m 28,5 km/h (5 Bft) NO 35 0 min 0 W/m 13,2 C 13,0 C 28,5 km/h (5 Bft)
23.06.2009 19:19 18,6 C 72 % 1025,5 hPa 0,0 l/m 25,5 km/h (4 Bft) N-NO 30 0 min 0 W/m 13,4 C 13,4 C 25,5 km/h (4 Bft)
23.06.2009 19:25 18,6 C 72 % 1025,5 hPa 0,0 l/m 18,6 km/h (3 Bft) N-NO 20 0 min 0 W/m 13,4 C 14,7 C 18,6 km/h (3 Bft)
23.06.2009 19:30 18,6 C 72 % 1025,5 hPa 0,0 l/m 32,0 km/h (5 Bft) N-NO 25 0 min 0 W/m 13,4 C 12,5 C 32,0 km/h (5 Bft)
23.06.2009 19:34 18,5 C 73 % 1025,5 hPa 0,0 l/m 27,8 km/h (5 Bft) N-NO 20 0 min 0 W/m 13,6 C 12,9 C 27,8 km/h (5 Bft)
23.06.2009 19:39 18,4 C 73 % 1025,5 hPa 0,0 l/m 24,1 km/h (4 Bft) NO 40 0 min 0 W/m 13,5 C 13,4 C 24,1 km/h (4 Bft)
23.06.2009 19:44 18,4 C 74 % 1025,5 hPa 0,0 l/m 24,3 km/h (4 Bft) N-NO 20 0 min 0 W/m 13,7 C 13,3 C 24,3 km/h (4 Bft)
23.06.2009 19:49 18,4 C 74 % 1025,5 hPa 0,0 l/m 21,3 km/h (4 Bft) N-NO 25 0 min 0 W/m 13,7 C 13,9 C 21,3 km/h (4 Bft)
23.06.2009 19:54 18,3 C 74 % 1025,5 hPa 0,0 l/m 19,9 km/h (4 Bft) N-NO 25 0 min 0 W/m 13,6 C 14,0 C 19,9 km/h (4 Bft)
23.06.2009 20:00 18,4 C 75 % 1024,5 hPa 0,0 l/m 16,5 km/h (3 Bft) N-NO 25 0 min 0 W/m 13,9 C 14,9 C 16,5 km/h (3 Bft)
23.06.2009 20:04 18,3 C 75 % 1025,5 hPa 0,0 l/m 22,7 km/h (4 Bft) N-NO 25 0 min 0 W/m 13,8 C 13,5 C 22,7 km/h (4 Bft)
23.06.2009 20:09 18,2 C 74 % 1024,5 hPa 0,0 l/m 21,3 km/h (4 Bft) N-NO 25 0 min 0 W/m 13,5 C 13,6 C 21,3 km/h (4 Bft)
23.06.2009 20:14 18,1 C 74 % 1024,5 hPa 0,0 l/m 19,7 km/h (3 Bft) N-NO 25 0 min 0 W/m 13,4 C 13,8 C 19,7 km/h (3 Bft)
23.06.2009 20:20 18,0 C 74 % 1025,5 hPa 0,0 l/m 22,8 km/h (4 Bft) N-NO 25 0 min 0 W/m 13,3 C 13,1 C 22,8 km/h (4 Bft)
23.06.2009 20:25 17,8 C 74 % 1025,5 hPa 0,0 l/m 22,7 km/h (4 Bft) N-NO 15 0 min 0 W/m 13,1 C 12,8 C 22,7 km/h (4 Bft)
23.06.2009 20:29 17,8 C 74 % 1025,5 hPa 0,0 l/m 22,1 km/h (4 Bft) N-NO 30 0 min 0 W/m 13,1 C 12,9 C 22,1 km/h (4 Bft)
23.06.2009 20:34 17,8 C 74 % 1024,5 hPa 0,0 l/m 21,8 km/h (4 Bft) N-NO 15 0 min 0 W/m 13,1 C 13,0 C 21,8 km/h (4 Bft)
23.06.2009 20:39 17,7 C 75 % 1024,5 hPa 0,0 l/m 24,2 km/h (4 Bft) NO 35 0 min 0 W/m 13,2 C 12,4 C 24,2 km/h (4 Bft)
23.06.2009 20:44 17,6 C 75 % 1024,5 hPa 0,0 l/m 25,5 km/h (4 Bft) NO 50 0 min 0 W/m 13,1 C 12,0 C 25,5 km/h (4 Bft)
23.06.2009 20:49 17,6 C 76 % 1024,5 hPa 0,0 l/m 23,2 km/h (4 Bft) NO 45 0 min 0 W/m 13,3 C 12,5 C 23,2 km/h (4 Bft)
23.06.2009 20:55 17,5 C 76 % 1024,5 hPa 0,0 l/m 23,3 km/h (4 Bft) N-NO 25 0 min 0 W/m 13,2 C 12,3 C 23,3 km/h (4 Bft)
23.06.2009 20:59 17,4 C 76 % 1024,5 hPa 0,0 l/m 21,3 km/h (4 Bft) N-NO 30 0 min 0 W/m 13,1 C 12,6 C 21,3 km/h (4 Bft)
23.06.2009 21:04 17,3 C 76 % 1024,5 hPa 0,0 l/m 20,9 km/h (4 Bft) N-NO 20 0 min 0 W/m 13,0 C 12,5 C 20,9 km/h (4 Bft)
23.06.2009 21:09 17,2 C 77 % 1024,5 hPa 0,0 l/m 22,1 km/h (4 Bft) N-NO 30 0 min 0 W/m 13,1 C 12,1 C 22,1 km/h (4 Bft)
23.06.2009 21:15 17,2 C 77 % 1024,5 hPa 0,0 l/m 18,2 km/h (3 Bft) N-NO 30 0 min 0 W/m 13,1 C 13,0 C 18,2 km/h (3 Bft)
23.06.2009 21:19 17,1 C 77 % 1024,5 hPa 0,0 l/m 16,6 km/h (3 Bft) N-NO 30 0 min 0 W/m 13,0 C 13,3 C 16,6 km/h (3 Bft)
23.06.2009 21:24 17,0 C 77 % 1024,5 hPa 0,0 l/m 23,0 km/h (4 Bft) N-NO 30 0 min 0 W/m 12,9 C 11,7 C 23,0 km/h (4 Bft)
23.06.2009 21:29 16,9 C 78 % 1024,5 hPa 0,0 l/m 19,5 km/h (3 Bft) N-NO 15 0 min 0 W/m 13,0 C 12,3 C 19,5 km/h (3 Bft)
23.06.2009 21:34 16,9 C 78 % 1024,5 hPa 0,0 l/m 22,4 km/h (4 Bft) NO 35 0 min 0 W/m 13,0 C 11,7 C 22,4 km/h (4 Bft)
23.06.2009 21:39 16,8 C 78 % 1024,5 hPa 0,0 l/m 21,2 km/h (4 Bft) N-NO 30 0 min 0 W/m 12,9 C 11,8 C 21,2 km/h (4 Bft)
23.06.2009 21:45 16,8 C 78 % 1024,5 hPa 0,0 l/m 21,0 km/h (4 Bft) NO 35 0 min 0 W/m 12,9 C 11,8 C 21,0 km/h (4 Bft)
23.06.2009 21:49 16,7 C 78 % 1025,5 hPa 0,0 l/m 17,2 km/h (3 Bft) NO 40 0 min 0 W/m 12,8 C 12,6 C 17,2 km/h (3 Bft)
23.06.2009 21:54 16,6 C 79 % 1025,5 hPa 0,0 l/m 19,1 km/h (3 Bft) NO 35 0 min 0 W/m 12,9 C 12,0 C 19,1 km/h (3 Bft)
23.06.2009 21:59 16,5 C 80 % 1024,5 hPa 0,0 l/m 21,0 km/h (4 Bft) N-NO 20 0 min 0 W/m 13,0 C 11,5 C 21,0 km/h (4 Bft)
23.06.2009 22:04 16,4 C 80 % 1024,5 hPa 0,0 l/m 20,4 km/h (4 Bft) N-NO 25 0 min 0 W/m 12,9 C 11,5 C 20,4 km/h (4 Bft)
23.06.2009 22:09 16,4 C 80 % 1024,5 hPa 0,0 l/m 21,0 km/h (4 Bft) NO 45 0 min 0 W/m 12,9 C 11,3 C 21,0 km/h (4 Bft)
23.06.2009 22:14 16,4 C 80 % 1024,5 hPa 0,0 l/m 14,8 km/h (3 Bft) N-NO 15 0 min 0 W/m 12,9 C 12,9 C 14,8 km/h (3 Bft)
23.06.2009 22:19 16,3 C 81 % 1024,5 hPa 0,0 l/m 19,8 km/h (3 Bft) NO 35 0 min 0 W/m 13,0 C 11,5 C 19,8 km/h (3 Bft)
23.06.2009 22:24 16,2 C 81 % 1024,5 hPa 0,0 l/m 18,9 km/h (3 Bft) NO 45 0 min 0 W/m 12,9 C 11,6 C 18,9 km/h (3 Bft)
23.06.2009 22:29 16,1 C 82 % 1024,5 hPa 0,0 l/m 20,2 km/h (4 Bft) NO 45 0 min 0 W/m 13,0 C 11,1 C 20,2 km/h (4 Bft)
23.06.2009 22:35 16,2 C 82 % 1024,5 hPa 0,0 l/m 20,2 km/h (4 Bft) NO 40 0 min 0 W/m 13,1 C 11,2 C 20,2 km/h (4 Bft)
23.06.2009 22:40 16,2 C 83 % 1024,5 hPa 0,0 l/m 16,0 km/h (3 Bft) N-NO 25 0 min 0 W/m 13,3 C 12,3 C 16,0 km/h (3 Bft)
23.06.2009 22:44 16,1 C 83 % 1024,5 hPa 0,0 l/m 17,1 km/h (3 Bft) NO 35 0 min 0 W/m 13,2 C 11,9 C 17,1 km/h (3 Bft)
23.06.2009 22:49 16,1 C 83 % 1024,5 hPa 0,0 l/m 21,0 km/h (4 Bft) N-NO 25 0 min 0 W/m 13,2 C 10,9 C 21,0 km/h (4 Bft)
23.06.2009 22:54 16,0 C 83 % 1024,5 hPa 0,0 l/m 16,7 km/h (3 Bft) NO 35 0 min 0 W/m 13,1 C 11,9 C 16,7 km/h (3 Bft)
23.06.2009 22:59 16,0 C 84 % 1024,5 hPa 0,0 l/m 17,0 km/h (3 Bft) NO 35 0 min 0 W/m 13,3 C 11,8 C 17,0 km/h (3 Bft)
23.06.2009 23:04 16,0 C 85 % 1024,5 hPa 0,0 l/m 20,1 km/h (4 Bft) NO 35 0 min 0 W/m 13,5 C 11,0 C 20,1 km/h (4 Bft)
23.06.2009 23:09 15,9 C 85 % 1024,5 hPa 0,0 l/m 17,5 km/h (3 Bft) N-NO 30 0 min 0 W/m 13,4 C 11,6 C 17,5 km/h (3 Bft)
23.06.2009 23:14 15,9 C 85 % 1024,5 hPa 0,0 l/m 20,0 km/h (4 Bft) NO 35 0 min 0 W/m 13,4 C 10,9 C 20,0 km/h (4 Bft)
23.06.2009 23:19 15,9 C 85 % 1024,5 hPa 0,0 l/m 22,5 km/h (4 Bft) NO 35 0 min 0 W/m 13,4 C 10,3 C 22,5 km/h (4 Bft)
23.06.2009 23:24 15,9 C 85 % 1025,5 hPa 0,0 l/m 17,4 km/h (3 Bft) NO 45 0 min 0 W/m 13,4 C 11,6 C 17,4 km/h (3 Bft)
23.06.2009 23:30 15,9 C 85 % 1025,5 hPa 0,0 l/m 17,4 km/h (3 Bft) N-NO 15 0 min 0 W/m 13,4 C 11,6 C 17,4 km/h (3 Bft)
23.06.2009 23:34 15,9 C 85 % 1025,5 hPa 0,0 l/m 16,2 km/h (3 Bft) NO 35 0 min 0 W/m 13,4 C 11,9 C 16,2 km/h (3 Bft)
23.06.2009 23:39 15,9 C 85 % 1025,5 hPa 0,0 l/m 17,8 km/h (3 Bft) NO 35 0 min 0 W/m 13,4 C 11,5 C 17,8 km/h (3 Bft)
23.06.2009 23:44 15,8 C 85 % 1025,5 hPa 0,0 l/m 13,5 km/h (3 Bft) NO 40 0 min 0 W/m 13,3 C 12,7 C 13,5 km/h (3 Bft)
23.06.2009 23:49 15,8 C 85 % 1025,5 hPa 0,0 l/m 16,8 km/h (3 Bft) N-NO 25 0 min 0 W/m 13,3 C 11,6 C 16,8 km/h (3 Bft)
23.06.2009 23:54 15,8 C 85 % 1025,5 hPa 0,0 l/m 15,3 km/h (3 Bft) N-NO 25 0 min 0 W/m 13,3 C 12,1 C 15,3 km/h (3 Bft)
_ Min-Zeit 04:34 11:09 20:00 - 06:19 - - - - 04:34 02:20 06:19
Minimum _ 12,9 C 55 % 1024,5 hPa - 5,9 km/h (2 Bft) - - - - 11,0 C 7,7 C 5,9 km/h (2 Bft)
_ Max-Zeit 10:49 03:59 08:19 00:00 19:30 - - 00:00 00:00 10:04 10:49 19:30
Maximum _ 23,8 C 89 % 1027,5 hPa 0,0 l/m 32,0 km/h
N-NO (5 Bft)
- - 0 min 0 W/m 15,8 C 23,0 C 32,0 km/h
N-NO (5 Bft)
Durchschnitt _ 17,5 C 76 % 1026,2 hPa #0,0 l/m 18,3 km/h (3 Bft) N-NO - #0 min. 0 W/m 13,0 C 13,8 C 18,3 km/h (3 Bft)
copyright by Holger Just